Time;durP1;ratioP1;P1;durP2;ratioP2;P2;SDS_P1;SDS_P2;PMS_P1;PMS_P2;Temp;Humidity;BMP_temperature;BMP_pressure;BME280_temperature;BME280_humidity;BME280_pressure;Samples;Min_cycle;Max_cycle;Signal;HPM_P1;HPM_P2
2022/09/09 00:01:52;;;;;;;8.45;3.50;;;14.10;99.90;;;;;;5072299;28;20041;-68
2022/09/09 00:04:30;;;;;;;7.72;3.60;;;14.10;99.90;;;;;;5064665;28;20140;-70
2022/09/09 00:07:05;;;;;;;7.53;3.55;;;14.10;99.90;;;;;;5069911;28;20049;-75
2022/09/09 00:09:39;;;;;;;10.02;3.90;;;14.10;99.90;;;;;;5071664;28;20052;-71
2022/09/09 00:12:21;;;;;;;9.52;3.72;;;14.00;99.90;;;;;;5070421;28;20124;-68
2022/09/09 00:15:07;;;;;;;9.68;4.05;;;14.10;99.90;;;;;;5071828;28;20052;-70
2022/09/09 00:17:47;;;;;;;10.18;3.60;;;14.10;99.90;;;;;;5068784;28;20092;-68
2022/09/09 00:20:27;;;;;;;8.30;3.10;;;14.10;99.90;;;;;;5051848;28;20044;-68
2022/09/09 00:23:37;;;;;;;7.38;3.22;;;14.00;99.90;;;;;;5056535;28;20123;-68
2022/09/09 00:26:15;;;;;;;11.65;3.72;;;14.00;99.90;;;;;;5062570;28;20045;-69
2022/09/09 00:29:07;;;;;;;6.28;3.67;;;14.00;99.90;;;;;;5068230;28;20123;-69
2022/09/09 00:31:33;;;;;;;8.98;3.50;;;14.00;99.90;;;;;;5041504;28;20497;-68
2022/09/09 00:34:02;;;;;;;;;;;14.00;99.90;;;;;;5071188;28;20044;-70
2022/09/09 00:36:30;;;;;;;7.72;3.40;;;14.00;99.90;;;;;;5071159;28;20414;-68
2022/09/09 00:38:59;;;;;;;9.15;3.50;;;14.00;99.90;;;;;;5071051;28;20083;-77
2022/09/09 00:41:47;;;;;;;6.65;3.58;;;13.90;99.90;;;;;;5066726;28;20375;-68
2022/09/09 00:44:35;;;;;;;7.70;3.28;;;13.90;99.90;;;;;;5061348;28;20052;-68
2022/09/09 00:47:35;;;;;;;8.13;3.25;;;13.90;99.90;;;;;;5060334;28;20055;-70
2022/09/09 00:50:16;;;;;;;5.00;2.85;;;13.90;99.90;;;;;;5070930;28;20409;-69
2022/09/09 00:53:03;;;;;;;8.25;3.40;;;13.90;99.90;;;;;;5067627;28;20190;-74
2022/09/09 00:56:00;;;;;;;13.38;4.22;;;13.90;99.90;;;;;;5071331;28;20057;-71
2022/09/09 00:58:27;;;;;;;6.93;3.30;;;13.90;99.90;;;;;;5059446;28;20072;-68
2022/09/09 01:01:06;;;;;;;10.77;3.55;;;13.90;99.90;;;;;;5069761;28;20068;-68
2022/09/09 01:03:35;;;;;;;9.98;3.58;;;13.90;99.90;;;;;;5071023;28;20055;-70
2022/09/09 01:06:29;;;;;;;10.13;3.60;;;13.90;99.90;;;;;;5064395;28;20045;-69
2022/09/09 01:09:05;;;;;;;9.40;3.80;;;13.90;99.90;;;;;;5068025;28;20051;-70
2022/09/09 01:11:51;;;;;;;10.43;3.73;;;14.00;99.90;;;;;;5059893;28;20049;-70
2022/09/09 01:14:25;;;;;;;9.32;4.20;;;14.00;99.90;;;;;;5059634;28;20485;-69
2022/09/09 01:16:56;;;;;;;8.90;3.50;;;14.20;99.90;;;;;;5070672;28;20053;-67
2022/09/09 01:19:43;;;;;;;6.05;3.20;;;14.30;99.90;;;;;;5070350;28;20406;-70
2022/09/09 01:22:22;;;;;;;7.63;3.17;;;14.30;99.90;;;;;;5067388;28;20116;-68
2022/09/09 01:25:07;;;;;;;9.82;3.15;;;14.30;99.90;;;;;;5051214;28;20044;-68
2022/09/09 01:27:34;;;;;;;12.43;3.58;;;14.30;99.90;;;;;;5058422;28;20593;-68
2022/09/09 01:30:00;;;;;;;7.72;3.40;;;14.30;99.90;;;;;;5060775;28;20128;-77
2022/09/09 01:32:43;;;;;;;7.70;3.30;;;14.40;99.90;;;;;;5070239;28;20124;-69
2022/09/09 01:35:42;;;;;;;17.05;4.28;;;14.40;99.90;;;;;;5070049;28;20505;-68
2022/09/09 01:38:08;;;;;;;7.93;3.78;;;14.40;99.90;;;;;;5067901;28;20751;-68
2022/09/09 01:40:34;;;;;;;;;;;14.40;99.90;;;;;;5069023;28;20048;-68
2022/09/09 01:43:00;;;;;;;8.85;3.72;;;14.40;99.90;;;;;;5070390;28;19931;-68
2022/09/09 01:45:26;;;;;;;9.43;4.07;;;14.30;99.90;;;;;;5070263;28;20087;-68
2022/09/09 01:47:54;;;;;;;10.05;3.88;;;14.40;99.90;;;;;;5068433;28;20102;-67
2022/09/09 01:50:21;;;;;;;10.88;4.10;;;14.40;99.90;;;;;;5060548;28;20059;-69
2022/09/09 01:52:50;;;;;;;10.40;4.05;;;14.40;99.90;;;;;;5068024;28;20102;-67
2022/09/09 01:55:16;;;;;;;8.55;3.47;;;14.30;99.90;;;;;;5070169;28;20052;-67
2022/09/09 01:57:58;;;;;;;7.40;3.42;;;14.30;99.90;;;;;;5070692;28;20126;-70
2022/09/09 02:00:24;;;;;;;8.00;3.80;;;14.30;99.90;;;;;;5070180;28;20896;-68
2022/09/09 02:03:05;;;;;;;10.35;3.40;;;14.20;99.90;;;;;;5050575;28;20045;-67
2022/09/09 02:05:41;;;;;;;11.30;4.47;;;14.20;99.90;;;;;;5053251;28;20052;-67
2022/09/09 02:08:21;;;;;;;7.90;3.40;;;14.20;99.90;;;;;;5068092;28;20051;-68
2022/09/09 02:10:56;;;;;;;10.52;3.67;;;14.20;99.90;;;;;;5050999;28;20262;-68
2022/09/09 02:13:22;;;;;;;7.45;4.22;;;14.20;99.90;;;;;;5050042;28;20128;-70
2022/09/09 02:15:57;;;;;;;7.50;3.80;;;14.20;99.90;;;;;;5050575;28;20263;-67
2022/09/09 02:18:45;;;;;;;7.28;3.72;;;14.20;99.90;;;;;;5051126;28;20128;-68
2022/09/09 02:21:13;;;;;;;8.35;3.33;;;14.20;99.90;;;;;;5066583;28;20766;-68
2022/09/09 02:23:42;;;;;;;6.90;3.95;;;14.20;99.90;;;;;;5070272;28;20075;-68
2022/09/09 02:26:13;;;;;;;7.90;3.30;;;14.20;99.90;;;;;;5069895;28;20052;-67
2022/09/09 02:28:40;;;;;;;9.40;3.78;;;14.20;99.90;;;;;;5053846;28;20106;-71
2022/09/09 02:31:06;;;;;;;8.57;3.83;;;14.20;99.90;;;;;;5065321;28;20083;-76
2022/09/09 02:33:38;;;;;;;8.73;3.95;;;14.20;99.90;;;;;;5052604;28;20072;-68
2022/09/09 02:36:07;;;;;;;9.35;3.80;;;14.20;99.90;;;;;;5069141;28;20066;-74
2022/09/09 02:38:38;;;;;;;8.60;4.15;;;14.20;99.90;;;;;;5070068;28;20047;-68
2022/09/09 02:41:04;;;;;;;10.25;3.22;;;14.20;99.90;;;;;;5053463;28;20049;-68
2022/09/09 02:43:34;;;;;;;7.00;3.40;;;14.20;99.90;;;;;;5049795;28;20044;-68
2022/09/09 02:46:19;;;;;;;8.10;3.70;;;14.20;99.90;;;;;;5052347;28;20192;-68
2022/09/09 02:48:55;;;;;;;7.43;3.50;;;14.20;99.90;;;;;;5066005;28;20117;-67
2022/09/09 02:51:43;;;;;;;9.27;4.40;;;14.20;99.90;;;;;;5047683;28;20100;-68
2022/09/09 02:54:28;;;;;;;9.40;4.47;;;14.30;99.90;;;;;;5051737;28;20111;-77
2022/09/09 02:56:54;;;;;;;10.18;4.32;;;14.30;99.90;;;;;;5070378;28;20044;-68
2022/09/09 02:59:21;;;;;;;10.23;3.65;;;14.30;99.90;;;;;;5072195;28;20052;-68
2022/09/09 03:01:46;;;;;;;6.97;3.35;;;14.30;99.90;;;;;;5073462;28;20394;-68
2022/09/09 03:04:13;;;;;;;5.47;3.05;;;14.30;99.90;;;;;;5065091;28;20052;-68
2022/09/09 03:06:39;;;;;;;5.72;2.58;;;14.30;99.90;;;;;;5055491;28;20405;-69
2022/09/09 03:09:04;;;;;;;5.03;2.50;;;14.30;99.90;;;;;;5071653;28;20055;-68
2022/09/09 03:11:30;;;;;;;5.05;2.38;;;14.30;99.90;;;;;;5052887;28;20045;-68
2022/09/09 03:13:56;;;;;;;6.32;2.33;;;14.30;99.90;;;;;;5053574;28;20060;-68
2022/09/09 03:16:22;;;;;;;3.90;1.98;;;14.30;99.90;;;;;;5052655;28;20620;-69
2022/09/09 03:18:48;;;;;;;5.00;2.13;;;14.30;99.90;;;;;;5058974;28;20048;-68
2022/09/09 03:21:14;;;;;;;2.38;1.50;;;14.20;99.90;;;;;;5069093;28;20508;-68
2022/09/09 03:23:40;;;;;;;6.65;1.83;;;14.20;99.90;;;;;;5053236;28;20049;-68
2022/09/09 03:26:06;;;;;;;4.65;1.80;;;14.20;99.90;;;;;;5053359;28;20053;-67
2022/09/09 03:28:32;;;;;;;4.35;1.80;;;14.20;99.90;;;;;;5052510;28;20511;-74
2022/09/09 03:31:03;;;;;;;3.28;1.70;;;14.20;99.90;;;;;;5053187;28;20059;-68
2022/09/09 03:33:29;;;;;;;1.88;1.42;;;14.20;99.90;;;;;;5054014;28;20131;-67
2022/09/09 03:35:56;;;;;;;2.95;1.38;;;14.20;99.90;;;;;;5067432;28;20398;-75
2022/09/09 03:38:25;;;;;;;2.47;1.65;;;14.10;99.90;;;;;;5050694;28;20194;-70
2022/09/09 03:41:00;;;;;;;2.67;1.60;;;14.10;99.90;;;;;;5069314;28;20129;-68
2022/09/09 03:43:26;;;;;;;3.47;1.73;;;14.10;99.90;;;;;;5072515;28;20110;-68
2022/09/09 03:45:52;;;;;;;10.15;3.10;;;14.10;99.90;;;;;;5070964;28;20177;-75
2022/09/09 03:48:18;;;;;;;6.75;2.70;;;14.00;99.90;;;;;;5071363;28;20048;-68
2022/09/09 03:50:48;;;;;;;7.13;3.30;;;14.00;99.90;;;;;;5072466;28;20459;-69
2022/09/09 03:53:15;;;;;;;9.30;3.50;;;14.00;99.90;;;;;;5070358;28;20057;-68
2022/09/09 03:55:49;;;;;;;11.50;4.60;;;14.00;99.90;;;;;;5072772;28;20109;-68
2022/09/09 03:58:16;;;;;;;9.65;4.30;;;14.00;99.90;;;;;;5072309;28;20044;-68
2022/09/09 04:00:44;;;;;;;13.50;4.53;;;14.00;99.90;;;;;;5068333;28;20048;-68
2022/09/09 04:03:11;;;;;;;10.55;4.55;;;14.00;99.90;;;;;;5052132;28;20049;-68
2022/09/09 04:05:39;;;;;;;12.40;5.90;;;14.10;99.90;;;;;;5070799;28;20166;-68
2022/09/09 04:08:08;;;;;;;11.65;5.20;;;14.10;99.90;;;;;;5070653;28;20062;-70
2022/09/09 04:10:37;;;;;;;13.65;4.88;;;14.10;99.90;;;;;;5070889;28;20062;-68
2022/09/09 04:13:04;;;;;;;11.25;5.50;;;14.10;99.90;;;;;;5072363;28;20052;-71
2022/09/09 04:15:31;;;;;;;12.85;5.00;;;14.10;99.90;;;;;;5055859;28;20049;-68
2022/09/09 04:17:56;;;;;;;12.15;4.75;;;14.10;99.90;;;;;;5051761;28;20494;-70
2022/09/09 04:20:23;;;;;;;10.63;5.15;;;14.20;99.90;;;;;;5052140;28;20127;-69
2022/09/09 04:22:48;;;;;;;12.80;4.95;;;14.20;99.90;;;;;;5065862;28;20053;-69
2022/09/09 04:25:14;;;;;;;10.38;4.72;;;14.20;99.90;;;;;;5051857;28;20056;-77
2022/09/09 04:27:40;;;;;;;10.95;5.25;;;14.20;99.90;;;;;;5067978;28;20486;-68
2022/09/09 04:30:07;;;;;;;10.27;5.15;;;14.20;99.90;;;;;;5072076;28;20040;-68
2022/09/09 04:32:36;;;;;;;11.52;5.10;;;14.10;99.90;;;;;;5062085;28;20067;-69
2022/09/09 04:35:03;;;;;;;11.77;4.95;;;14.10;99.90;;;;;;5064504;28;20056;-69
2022/09/09 04:37:28;;;;;;;11.25;5.03;;;13.90;99.90;;;;;;5069462;28;20083;-71
2022/09/09 04:39:54;;;;;;;12.25;4.97;;;14.10;99.90;;;;;;5071946;28;20551;-67
2022/09/09 04:42:20;;;;;;;12.00;5.50;;;14.10;99.90;;;;;;5071259;28;20059;-68
2022/09/09 04:44:45;;;;;;;11.40;4.70;;;14.10;99.90;;;;;;5071496;28;20052;-68
2022/09/09 04:47:11;;;;;;;9.88;5.07;;;14.10;99.90;;;;;;5071402;28;20098;-67
2022/09/09 04:49:38;;;;;;;10.43;4.65;;;14.10;99.90;;;;;;5069798;28;20105;-68
2022/09/09 04:52:04;;;;;;;14.05;5.40;;;14.10;99.90;;;;;;5069135;28;20068;-68
2022/09/09 04:54:29;;;;;;;11.00;4.07;;;14.10;99.90;;;;;;5070851;28;20467;-68
2022/09/09 04:56:55;;;;;;;9.70;4.47;;;14.10;99.90;;;;;;5054082;28;20638;-68
2022/09/09 04:59:21;;;;;;;8.25;4.13;;;14.10;99.90;;;;;;5051018;28;20103;-69
2022/09/09 05:01:48;;;;;;;9.85;4.03;;;14.10;99.90;;;;;;5061482;28;20055;-67
2022/09/09 05:04:15;;;;;;;8.20;3.70;;;14.10;99.90;;;;;;5070753;28;20629;-70
2022/09/09 05:06:42;;;;;;;8.82;4.22;;;14.10;99.90;;;;;;5068731;28;20490;-70
2022/09/09 05:09:08;;;;;;;8.48;4.10;;;14.00;99.90;;;;;;5066332;28;20133;-68
2022/09/09 05:11:36;;;;;;;7.72;3.72;;;14.00;99.90;;;;;;5053852;28;20119;-67
2022/09/09 05:14:03;;;;;;;7.68;4.20;;;14.00;99.90;;;;;;5071261;28;20088;-69
2022/09/09 05:16:29;;;;;;;8.05;3.38;;;14.00;99.90;;;;;;5065236;28;20044;-67
2022/09/09 05:18:55;;;;;;;9.07;3.90;;;14.00;99.90;;;;;;5056216;28;20135;-68
2022/09/09 05:21:23;;;;;;;9.13;3.40;;;14.00;99.90;;;;;;5068339;28;20148;-68
2022/09/09 05:23:49;;;;;;;9.85;4.00;;;14.00;99.90;;;;;;5070711;28;20508;-67
2022/09/09 05:26:17;;;;;;;7.47;3.75;;;14.00;99.90;;;;;;5069020;28;20655;-67
2022/09/09 05:28:42;;;;;;;7.25;4.05;;;14.00;99.90;;;;;;5070907;28;20127;-68
2022/09/09 05:31:13;;;;;;;9.75;4.75;;;14.00;99.90;;;;;;5070638;28;20569;-70
2022/09/09 05:33:43;;;;;;;8.38;4.18;;;14.00;99.90;;;;;;5070180;28;20301;-70
2022/09/09 05:36:20;;;;;;;10.82;4.30;;;13.90;99.90;;;;;;5069412;28;20040;-72
2022/09/09 05:38:46;;;;;;;10.30;4.90;;;13.90;99.90;;;;;;5070003;28;20053;-68
2022/09/09 05:41:15;;;;;;;12.07;5.18;;;13.90;99.90;;;;;;5068908;28;20091;-69
2022/09/09 05:43:42;;;;;;;10.00;4.70;;;13.90;99.90;;;;;;5068967;28;20478;-67
2022/09/09 05:46:12;;;;;;;11.05;4.80;;;13.90;99.90;;;;;;5059772;28;20386;-67
2022/09/09 05:48:46;;;;;;;11.45;4.80;;;13.90;99.90;;;;;;5070219;28;20070;-70
2022/09/09 05:51:15;;;;;;;11.27;4.82;;;13.90;99.90;;;;;;5068655;28;20122;-67
2022/09/09 05:53:42;;;;;;;8.68;4.10;;;13.90;99.90;;;;;;5070282;28;20047;-67
2022/09/09 05:56:14;;;;;;;10.43;4.80;;;14.00;99.90;;;;;;5068788;28;20052;-67
2022/09/09 05:58:40;;;;;;;11.02;4.75;;;14.00;99.90;;;;;;5070235;28;20159;-67
2022/09/09 06:01:08;;;;;;;9.98;5.10;;;14.00;99.90;;;;;;5070187;28;20045;-67
2022/09/09 06:03:38;;;;;;;10.25;4.82;;;14.10;99.90;;;;;;5065381;28;20055;-67
2022/09/09 06:06:07;;;;;;;9.93;4.97;;;14.10;99.90;;;;;;5049394;28;20096;-67
2022/09/09 06:08:34;;;;;;;9.90;4.55;;;14.20;99.90;;;;;;5049645;28;20049;-68
2022/09/09 06:11:11;;;;;;;10.80;4.82;;;14.20;99.90;;;;;;5050462;28;20049;-67
2022/09/09 06:13:38;;;;;;;10.45;4.88;;;14.20;99.90;;;;;;5050101;28;20079;-67
2022/09/09 06:16:06;;;;;;;9.85;4.45;;;14.20;99.90;;;;;;5058817;28;20127;-67
2022/09/09 06:18:33;;;;;;;13.65;4.30;;;14.20;99.90;;;;;;5067743;28;20110;-69
2022/09/09 06:21:00;;;;;;;11.35;4.35;;;14.20;99.90;;;;;;5064730;28;20053;-73
2022/09/09 06:23:28;;;;;;;9.65;4.30;;;14.30;99.90;;;;;;5048340;28;20052;-67
2022/09/09 06:26:05;;;;;;;9.30;4.07;;;14.30;99.90;;;;;;5057763;28;20049;-67
2022/09/09 06:28:32;;;;;;;11.45;4.63;;;14.30;99.90;;;;;;5070064;28;20056;-67
2022/09/09 06:31:03;;;;;;;7.57;3.75;;;14.30;99.90;;;;;;5069961;28;20555;-67
2022/09/09 06:33:34;;;;;;;9.18;4.10;;;14.30;99.90;;;;;;5071050;28;20049;-68
2022/09/09 06:36:02;;;;;;;8.43;4.05;;;14.40;99.90;;;;;;5071746;28;20432;-71
2022/09/09 06:38:27;;;;;;;8.52;3.90;;;14.40;99.90;;;;;;5073059;28;20060;-68
2022/09/09 06:40:55;;;;;;;10.57;4.68;;;14.50;99.90;;;;;;5056079;28;20094;-67
2022/09/09 06:43:22;;;;;;;10.73;4.55;;;14.50;99.90;;;;;;5058506;28;20412;-68
2022/09/09 06:45:58;;;;;;;9.73;4.38;;;14.50;99.90;;;;;;5073743;28;20481;-66
2022/09/09 06:48:25;;;;;;;10.43;5.18;;;14.50;99.90;;;;;;5073908;28;20071;-75
2022/09/09 06:51:04;;;;;;;10.32;4.32;;;14.60;99.90;;;;;;5073242;28;20149;-75
2022/09/09 06:53:33;;;;;;;15.88;4.63;;;14.60;99.90;;;;;;5071830;28;20064;-71
2022/09/09 06:55:59;;;;;;;11.52;4.72;;;14.60;99.90;;;;;;5073913;28;20444;-68
2022/09/09 06:58:24;;;;;;;11.38;4.57;;;14.70;99.90;;;;;;5061217;28;20045;-77
2022/09/09 07:00:50;;;;;;;12.40;5.43;;;14.70;99.90;;;;;;5057229;28;20068;-71
2022/09/09 07:03:16;;;;;;;9.57;5.00;;;14.70;99.90;;;;;;5053554;28;20041;-68
2022/09/09 07:05:41;;;;;;;8.35;4.82;;;14.70;99.90;;;;;;5071717;28;20044;-69
2022/09/09 07:08:07;;;;;;;8.25;4.30;;;14.80;99.90;;;;;;5071489;28;20548;-68
2022/09/09 07:10:34;;;;;;;12.75;4.95;;;14.80;99.90;;;;;;5064326;28;20044;-70
2022/09/09 07:13:00;;;;;;;7.93;4.18;;;14.80;99.90;;;;;;5072438;28;20519;-70
2022/09/09 07:15:26;;;;;;;8.23;4.40;;;14.90;99.90;;;;;;5072375;28;20133;-74
2022/09/09 07:17:53;;;;;;;10.32;4.93;;;15.00;99.90;;;;;;5073045;28;20049;-70
2022/09/09 07:20:20;;;;;;;11.50;4.43;;;15.00;99.90;;;;;;5070021;28;20148;-69
2022/09/09 07:22:46;;;;;;;12.52;4.25;;;15.10;99.90;;;;;;5049637;28;20393;-69
2022/09/09 07:25:11;;;;;;;;;;;15.10;99.90;;;;;;5054509;28;20048;-70
2022/09/09 07:27:37;;;;;;;9.30;4.18;;;15.10;99.90;;;;;;5051839;28;19929;-69
2022/09/09 07:30:03;;;;;;;11.40;4.30;;;15.20;99.90;;;;;;5069428;28;20501;-70
2022/09/09 07:32:30;;;;;;;8.00;4.20;;;15.20;99.90;;;;;;5072143;28;20049;-69
2022/09/09 07:34:57;;;;;;;8.02;3.90;;;15.20;99.90;;;;;;5072875;28;20506;-71
2022/09/09 07:37:24;;;;;;;9.82;4.32;;;15.30;99.90;;;;;;5070206;28;20052;-70
2022/09/09 07:39:50;;;;;;;7.68;3.67;;;15.30;99.90;;;;;;5072407;28;20061;-70
2022/09/09 07:42:16;;;;;;;9.30;3.83;;;15.40;99.90;;;;;;5071082;28;20060;-71
2022/09/09 07:44:42;;;;;;;9.57;3.55;;;15.50;99.90;;;;;;5051140;28;20059;-69
2022/09/09 07:47:07;;;;;;;9.57;4.25;;;15.50;99.90;;;;;;5052504;28;20169;-71
2022/09/09 07:49:34;;;;;;;9.38;3.90;;;15.50;99.90;;;;;;5069315;28;20044;-70
2022/09/09 07:51:59;;;;;;;9.55;4.55;;;15.60;99.90;;;;;;5070361;28;20052;-70
2022/09/09 07:54:25;;;;;;;10.77;4.28;;;15.70;99.90;;;;;;5072607;28;20402;-70
2022/09/09 07:56:52;;;;;;;13.65;4.22;;;15.80;99.90;;;;;;5054323;28;20385;-70
2022/09/09 07:59:18;;;;;;;5.97;3.00;;;16.00;99.90;;;;;;5060993;28;20099;-72
2022/09/09 08:01:47;;;;;;;9.57;4.10;;;16.10;99.90;;;;;;5050758;28;20053;-69
2022/09/09 08:04:18;;;;;;;7.78;3.20;;;16.30;99.90;;;;;;5058587;28;20576;-70
2022/09/09 08:06:55;;;;;;;8.32;3.72;;;16.40;99.90;;;;;;5063849;28;20040;-73
2022/09/09 08:09:24;;;;;;;10.65;3.45;;;16.40;99.90;;;;;;5066601;28;20102;-70
2022/09/09 08:11:50;;;;;;;6.97;3.40;;;16.50;99.90;;;;;;5068973;28;20880;-75
2022/09/09 08:14:17;;;;;;;10.73;3.35;;;16.50;99.90;;;;;;5069944;28;20052;-71
2022/09/09 08:16:46;;;;;;;8.10;3.33;;;16.60;99.90;;;;;;5068918;28;20045;-70
2022/09/09 08:19:12;;;;;;;6.80;3.50;;;16.60;99.90;;;;;;5070172;28;20474;-70
2022/09/09 08:21:39;;;;;;;8.10;3.33;;;16.60;99.90;;;;;;5067193;28;20115;-71
2022/09/09 08:24:07;;;;;;;7.60;3.22;;;16.60;99.90;;;;;;5070542;28;20054;-69
2022/09/09 08:26:38;;;;;;;7.75;3.30;;;16.60;99.90;;;;;;5069399;28;20044;-73
2022/09/09 08:29:06;;;;;;;8.05;3.10;;;16.80;99.90;;;;;;5065708;28;20131;-71
2022/09/09 08:31:37;;;;;;;8.20;3.20;;;16.90;99.90;;;;;;5068591;28;20072;-77
2022/09/09 08:34:04;;;;;;;8.07;3.45;;;16.90;99.90;;;;;;5069317;28;20041;-71
2022/09/09 08:36:36;;;;;;;6.28;2.92;;;16.90;99.90;;;;;;5067680;28;20429;-71
2022/09/09 08:39:03;;;;;;;7.90;3.08;;;16.90;99.90;;;;;;5070341;28;20741;-72
2022/09/09 08:42:00;;;;;;;6.63;3.00;;;17.00;99.90;;;;;;5071159;28;20045;-72
2022/09/09 08:44:29;;;;;;;11.93;2.88;;;17.00;99.90;;;;;;5070407;28;20410;-72
2022/09/09 08:47:04;;;;;;;8.13;2.53;;;17.00;99.90;;;;;;5069291;28;20131;-70
2022/09/09 08:49:56;;;;;;;9.85;2.80;;;16.90;99.90;;;;;;5061774;28;20049;-71
2022/09/09 08:52:29;;;;;;;8.90;2.70;;;16.90;99.90;;;;;;5057434;28;20128;-70
2022/09/09 08:55:02;;;;;;;15.95;2.80;;;16.90;99.90;;;;;;5067212;28;20052;-70
2022/09/09 08:59:36;;;;;;;6.28;3.13;;;17.10;99.90;;;;;;5109111;27;20361;-71
2022/09/09 09:02:01;;;;;;;7.70;2.90;;;17.20;99.90;;;;;;5108442;27;20055;-71
2022/09/09 09:04:51;;;;;;;9.18;2.90;;;17.20;99.90;;;;;;5108062;28;20047;-71
2022/09/09 09:07:35;;;;;;;15.32;4.15;;;17.30;99.90;;;;;;5137729;27;20071;-71
2022/09/09 09:10:44;;;;;;;8.80;2.75;;;17.40;99.90;;;;;;5103501;28;20055;-72
2022/09/09 09:13:40;;;;;;;6.75;2.60;;;17.40;99.90;;;;;;5105375;28;20047;-75
2022/09/09 09:16:40;;;;;;;7.43;2.92;;;17.40;99.90;;;;;;5058996;28;20520;-71
2022/09/09 09:19:14;;;;;;;7.70;2.53;;;17.40;99.90;;;;;;5106725;28;20052;-71
2022/09/09 09:21:46;;;;;;;8.32;2.70;;;17.50;99.90;;;;;;5101682;28;20052;-72
2022/09/09 09:24:17;;;;;;;6.30;2.55;;;17.60;99.90;;;;;;5104226;28;20124;-69
2022/09/09 09:26:43;;;;;;;5.63;2.50;;;17.70;99.90;;;;;;5103871;28;20048;-69
2022/09/09 09:29:14;;;;;;;;;;;17.70;99.90;;;;;;5104703;28;20048;-69
2022/09/09 09:31:50;;;;;;;7.32;2.40;;;17.80;99.90;;;;;;5101285;28;19920;-74
2022/09/09 09:34:17;;;;;;;7.93;2.67;;;17.90;99.90;;;;;;5106883;28;20059;-69
2022/09/09 09:36:46;;;;;;;9.23;2.63;;;17.90;99.90;;;;;;5102684;28;20054;-69
2022/09/09 09:39:30;;;;;;;6.30;2.33;;;18.10;99.90;;;;;;5105535;28;20046;-72
2022/09/09 09:41:57;;;;;;;4.28;2.03;;;18.20;99.90;;;;;;5106767;28;20050;-71
2022/09/09 09:44:26;;;;;;;6.57;1.83;;;18.30;99.90;;;;;;5138373;27;20077;-69
2022/09/09 09:46:51;;;;;;;6.55;2.15;;;18.40;99.90;;;;;;5106775;28;20776;-70
2022/09/09 09:49:18;;;;;;;;;;;18.50;99.90;;;;;;5088391;28;20044;-70
2022/09/09 09:51:44;;;;;;;4.40;2.35;;;18.60;99.90;;;;;;5102566;28;19926;-70
2022/09/09 09:54:13;;;;;;;8.57;2.10;;;18.80;99.90;;;;;;5106989;28;20044;-70
2022/09/09 09:56:40;;;;;;;4.60;1.80;;;18.80;99.90;;;;;;5104930;28;20051;-70
2022/09/09 09:59:32;;;;;;;5.25;1.90;;;18.90;99.90;;;;;;5098669;28;20055;-72
2022/09/09 10:02:14;;;;;;;7.28;1.90;;;18.80;99.90;;;;;;5101528;28;20136;-74
2022/09/09 10:04:41;;;;;;;6.55;1.88;;;18.80;99.90;;;;;;5105836;28;20508;-69
2022/09/09 10:07:21;;;;;;;7.93;1.77;;;18.80;99.90;;;;;;5107086;28;20055;-72
2022/09/09 10:09:57;;;;;;;7.55;2.03;;;18.70;99.90;;;;;;5080709;28;20062;-69
2022/09/09 10:12:32;;;;;;;;;;;18.70;99.90;;;;;;5091567;28;20056;-70
2022/09/09 10:15:22;;;;;;;8.45;1.92;;;18.60;99.90;;;;;;5090923;28;20420;-70
2022/09/09 10:42:05;;;;;;;5.40;1.40;;;19.50;99.90;;;;;;5089756;27;20364;-71
2022/09/09 10:44:54;;;;;;;5.25;1.42;;;19.60;99.90;;;;;;5100305;27;20485;-69
2022/09/09 10:48:22;;;;;;;5.73;1.40;;;19.70;99.90;;;;;;5006651;28;20687;-66
2022/09/09 10:51:29;;;;;;;3.67;1.48;;;19.70;99.90;;;;;;5007249;28;20208;-68
2022/09/09 10:54:10;;;;;;;4.45;1.50;;;19.80;99.90;;;;;;5010308;28;20194;-67
2022/09/09 10:56:36;;;;;;;5.97;2.05;;;19.80;99.90;;;;;;5005540;28;20054;-67
2022/09/09 10:59:12;;;;;;;5.32;1.85;;;19.70;99.90;;;;;;5003818;28;20053;-68
2022/09/09 11:01:44;;;;;;;2.03;1.20;;;19.80;99.90;;;;;;5003863;28;20050;-71
2022/09/09 11:04:19;;;;;;;5.65;1.40;;;19.80;99.90;;;;;;5006363;28;20050;-67
2022/09/09 11:06:52;;;;;;;6.53;1.30;;;19.80;99.90;;;;;;5012685;28;20076;-68
2022/09/09 11:09:23;;;;;;;6.50;1.63;;;19.80;99.90;;;;;;5014725;28;20131;-68
2022/09/09 11:11:55;;;;;;;3.97;1.45;;;20.00;99.90;;;;;;5012600;28;20048;-72
2022/09/09 11:14:37;;;;;;;4.88;1.33;;;20.20;99.90;;;;;;5007414;28;20436;-67
2022/09/09 11:17:27;;;;;;;4.40;2.20;;;20.30;99.90;;;;;;4992314;28;20078;-67
2022/09/09 11:19:53;;;;;;;4.13;1.17;;;20.20;99.90;;;;;;4997082;28;20321;-66
2022/09/09 11:22:40;;;;;;;5.10;1.60;;;20.10;99.90;;;;;;5004222;28;20050;-67
2022/09/09 11:25:26;;;;;;;4.97;1.25;;;20.30;99.90;;;;;;5009498;28;20062;-67
2022/09/09 11:28:16;;;;;;;2.90;0.90;;;20.30;99.90;;;;;;4998553;28;20077;-67
2022/09/09 11:31:03;;;;;;;6.03;1.38;;;20.80;99.90;;;;;;5001715;28;20052;-69
2022/09/09 11:33:37;;;;;;;2.88;1.30;;;21.70;99.90;;;;;;5002938;28;20054;-67
2022/09/09 11:36:21;;;;;;;3.90;0.90;;;22.20;99.90;;;;;;5003553;28;20057;-69
2022/09/09 11:38:51;;;;;;;4.38;1.10;;;22.20;99.90;;;;;;5004199;28;20046;-70
2022/09/09 11:41:20;;;;;;;4.97;1.10;;;22.30;99.90;;;;;;5002634;28;20045;-70
2022/09/09 11:43:50;;;;;;;4.10;1.08;;;22.20;99.90;;;;;;5003353;28;20050;-70
2022/09/09 11:46:18;;;;;;;3.05;1.10;;;21.70;99.90;;;;;;4992550;28;20100;-70
2022/09/09 11:48:46;;;;;;;3.67;1.17;;;21.50;99.90;;;;;;4992174;28;20054;-70
2022/09/09 11:51:21;;;;;;;4.07;1.10;;;21.40;99.90;;;;;;5000458;28;20107;-70
2022/09/09 11:54:04;;;;;;;3.25;1.42;;;21.30;99.90;;;;;;5002788;28;20043;-69
2022/09/09 11:56:50;;;;;;;5.80;1.48;;;21.20;99.90;;;;;;5003761;28;20046;-69
2022/09/09 11:59:27;;;;;;;2.97;1.10;;;20.90;99.90;;;;;;4978110;28;20533;-69
2022/09/09 12:01:58;;;;;;;6.47;1.35;;;20.70;99.90;;;;;;4988725;28;20082;-70
2022/09/09 12:04:24;;;;;;;5.47;1.65;;;20.60;99.90;;;;;;5009763;28;20544;-69
2022/09/09 12:07:21;;;;;;;2.60;1.00;;;20.70;99.90;;;;;;4989128;28;20725;-70
2022/09/09 12:09:58;;;;;;;3.70;1.42;;;20.70;99.90;;;;;;4977581;28;20151;-71
2022/09/09 12:12:38;;;;;;;4.32;1.45;;;21.20;99.90;;;;;;4985554;28;20663;-69
2022/09/09 12:15:07;;;;;;;2.67;1.60;;;21.50;99.90;;;;;;4989559;28;20125;-69
2022/09/09 12:17:47;;;;;;;6.03;1.23;;;21.80;99.90;;;;;;4988277;28;20042;-69
2022/09/09 12:20:33;;;;;;;4.22;0.98;;;21.80;99.90;;;;;;4989669;28;20066;-69
2022/09/09 12:23:19;;;;;;;4.35;1.20;;;21.70;99.90;;;;;;4989702;28;20084;-69
2022/09/09 12:26:06;;;;;;;7.25;1.55;;;21.40;99.90;;;;;;4988450;28;20411;-69
2022/09/09 12:28:59;;;;;;;2.85;1.20;;;21.20;99.90;;;;;;4989594;28;20058;-69
2022/09/09 12:31:42;;;;;;;6.47;1.52;;;21.00;99.90;;;;;;4987943;28;20054;-69
2022/09/09 12:34:25;;;;;;;6.70;1.77;;;20.90;99.90;;;;;;4987401;28;20046;-70
2022/09/09 12:36:57;;;;;;;2.05;1.00;;;20.70;99.90;;;;;;4998695;28;20107;-66
2022/09/09 12:39:33;;;;;;;3.97;1.10;;;20.70;99.90;;;;;;4999103;28;20085;-67
2022/09/09 12:41:59;;;;;;;4.95;1.30;;;20.70;99.90;;;;;;4986722;28;20488;-70
2022/09/09 12:44:25;;;;;;;;;;;20.80;99.90;;;;;;4980036;28;20054;-68
2022/09/09 12:46:52;;;;;;;2.47;1.10;;;21.20;99.90;;;;;;4976127;28;19934;-70
2022/09/09 12:49:38;;;;;;;5.93;1.17;;;21.80;99.90;;;;;;4972826;28;20526;-69
2022/09/09 12:52:09;;;;;;;5.88;1.23;;;21.90;99.90;;;;;;4983303;28;20049;-67
2022/09/09 12:54:37;;;;;;;4.88;1.40;;;21.60;99.90;;;;;;4987097;28;20129;-66
2022/09/09 12:57:05;;;;;;;6.13;1.13;;;21.40;99.90;;;;;;4995355;28;20046;-66
2022/09/09 12:59:42;;;;;;;3.75;1.33;;;21.10;99.90;;;;;;4989037;28;20096;-66
2022/09/09 13:02:26;;;;;;;3.50;1.05;;;20.80;99.90;;;;;;4988103;28;20081;-67
2022/09/09 13:04:52;;;;;;;3.58;1.05;;;20.60;99.90;;;;;;4977434;28;20053;-66
2022/09/09 13:07:19;;;;;;;2.78;1.20;;;20.40;99.90;;;;;;4988912;28;20065;-66
2022/09/09 13:09:47;;;;;;;3.33;1.85;;;20.30;99.90;;;;;;4987716;28;20068;-67
2022/09/09 13:12:22;;;;;;;1.50;0.90;;;20.10;99.90;;;;;;4977336;28;20051;-67
2022/09/09 13:14:51;;;;;;;5.15;1.35;;;20.00;99.90;;;;;;4990131;28;20043;-66
2022/09/09 13:17:25;;;;;;;4.05;1.70;;;19.50;99.90;;;;;;4976539;28;20047;-69
2022/09/09 13:19:52;;;;;;;5.35;1.60;;;18.70;99.90;;;;;;4987075;28;20456;-68
2022/09/09 13:22:35;;;;;;;9.30;1.80;;;18.10;99.90;;;;;;4986917;28;20046;-68
2022/09/09 13:25:05;;;;;;;2.85;1.20;;;17.90;99.90;;;;;;4988402;28;20065;-68
2022/09/09 13:27:41;;;;;;;5.03;1.52;;;18.20;99.90;;;;;;4987439;28;20047;-67
2022/09/09 13:30:40;;;;;;;4.15;1.65;;;18.40;99.90;;;;;;4989138;28;20058;-67
2022/09/09 13:33:20;;;;;;;4.97;1.25;;;19.10;99.90;;;;;;4978297;28;20046;-68
2022/09/09 13:36:04;;;;;;;5.45;1.85;;;20.00;99.90;;;;;;4976573;28;20121;-71
2022/09/09 13:38:35;;;;;;;7.97;1.50;;;20.60;99.90;;;;;;4989261;28;20062;-68
2022/09/09 13:41:04;;;;;;;2.92;1.60;;;20.60;99.90;;;;;;4988676;28;20474;-72